Terminal Aerodrome Forecast
Issued by NWS

Home | Current Version | Previous Version | Text Only | Print | Product List | Glossary On
Versions: 1 2 3 4 5 6 7 8 9 10 11 12 13 14 15 16 17 18 19 20 21 22 23
000
FTUS43 KAPX 280221 AAA
TAFAPN
TAF AMD
KAPN 280221Z 2802/2824 12005KT P6SM SCT070 OVC120
     FM280600 12004KT P6SM VCSH SCT050 OVC090
     FM281000 14003KT 6SM BR SCT070 OVC120
     FM281500 19009KT P6SM BKN050 BKN150
     FM282100 16009KT P6SM VCSH SCT050 BKN120=

USA.gov is the U.S. government's official web portal to all federal, state and local government web resources and services.